sensor_id;sensor_type;location;lat;lon;timestamp;temperature;humidity
14210;DHT22;7188;56.070;12.698;2022-08-21T00:01:58;15.80;99.90
14210;DHT22;7188;56.070;12.698;2022-08-21T00:04:24;15.60;1.00
14210;DHT22;7188;56.070;12.698;2022-08-21T00:06:50;15.50;1.00
14210;DHT22;7188;56.070;12.698;2022-08-21T00:09:17;15.50;1.00
14210;DHT22;7188;56.070;12.698;2022-08-21T00:11:43;15.40;1.00
14210;DHT22;7188;56.070;12.698;2022-08-21T00:14:13;15.40;99.90
14210;DHT22;7188;56.070;12.698;2022-08-21T00:16:39;15.30;1.00
14210;DHT22;7188;56.070;12.698;2022-08-21T00:19:06;15.30;1.00
14210;DHT22;7188;56.070;12.698;2022-08-21T00:21:33;15.20;62.10
14210;DHT22;7188;56.070;12.698;2022-08-21T00:23:59;15.30;99.90
14210;DHT22;7188;56.070;12.698;2022-08-21T00:26:25;15.30;99.90
14210;DHT22;7188;56.070;12.698;2022-08-21T00:28:52;15.30;68.60
14210;DHT22;7188;56.070;12.698;2022-08-21T00:31:18;15.30;99.90
14210;DHT22;7188;56.070;12.698;2022-08-21T00:33:44;15.20;1.00
14210;DHT22;7188;56.070;12.698;2022-08-21T00:36:10;15.10;20.60
14210;DHT22;7188;56.070;12.698;2022-08-21T00:38:36;15.10;99.90
14210;DHT22;7188;56.070;12.698;2022-08-21T00:41:04;15.20;1.00
14210;DHT22;7188;56.070;12.698;2022-08-21T00:43:32;15.30;1.00
14210;DHT22;7188;56.070;12.698;2022-08-21T00:45:58;15.40;99.90
14210;DHT22;7188;56.070;12.698;2022-08-21T00:48:24;15.40;1.00
14210;DHT22;7188;56.070;12.698;2022-08-21T00:50:56;15.30;1.00
14210;DHT22;7188;56.070;12.698;2022-08-21T00:53:23;15.30;1.00
14210;DHT22;7188;56.070;12.698;2022-08-21T00:55:49;15.30;1.00
14210;DHT22;7188;56.070;12.698;2022-08-21T00:58:16;15.30;1.00
14210;DHT22;7188;56.070;12.698;2022-08-21T01:00:44;15.30;1.00
14210;DHT22;7188;56.070;12.698;2022-08-21T01:03:13;15.20;99.90
14210;DHT22;7188;56.070;12.698;2022-08-21T01:05:41;15.10;1.00
14210;DHT22;7188;56.070;12.698;2022-08-21T01:08:08;15.10;1.00
14210;DHT22;7188;56.070;12.698;2022-08-21T01:10:35;14.90;99.90
14210;DHT22;7188;56.070;12.698;2022-08-21T01:13:01;14.80;1.00
14210;DHT22;7188;56.070;12.698;2022-08-21T01:15:37;14.80;1.00
14210;DHT22;7188;56.070;12.698;2022-08-21T01:18:04;14.90;99.90
14210;DHT22;7188;56.070;12.698;2022-08-21T01:20:31;15.00;99.90
14210;DHT22;7188;56.070;12.698;2022-08-21T01:22:57;15.00;1.00
14210;DHT22;7188;56.070;12.698;2022-08-21T01:25:23;14.90;1.00
14210;DHT22;7188;56.070;12.698;2022-08-21T01:27:49;14.80;1.00
14210;DHT22;7188;56.070;12.698;2022-08-21T01:30:19;14.80;99.90
14210;DHT22;7188;56.070;12.698;2022-08-21T01:32:46;14.80;1.00
14210;DHT22;7188;56.070;12.698;2022-08-21T01:35:13;14.80;1.00
14210;DHT22;7188;56.070;12.698;2022-08-21T01:37:39;14.70;1.00
14210;DHT22;7188;56.070;12.698;2022-08-21T01:40:06;14.70;1.00
14210;DHT22;7188;56.070;12.698;2022-08-21T01:42:33;14.70;1.00
14210;DHT22;7188;56.070;12.698;2022-08-21T01:44:59;14.60;99.90
14210;DHT22;7188;56.070;12.698;2022-08-21T01:47:25;14.60;28.70
14210;DHT22;7188;56.070;12.698;2022-08-21T01:49:51;14.50;1.00
14210;DHT22;7188;56.070;12.698;2022-08-21T01:52:17;14.50;93.10
14210;DHT22;7188;56.070;12.698;2022-08-21T01:54:43;14.40;1.00
14210;DHT22;7188;56.070;12.698;2022-08-21T01:57:09;14.40;99.90
14210;DHT22;7188;56.070;12.698;2022-08-21T01:59:36;14.40;99.90
14210;DHT22;7188;56.070;12.698;2022-08-21T02:02:02;14.50;1.00
14210;DHT22;7188;56.070;12.698;2022-08-21T02:04:28;14.50;1.00
14210;DHT22;7188;56.070;12.698;2022-08-21T02:06:54;14.60;1.00
14210;DHT22;7188;56.070;12.698;2022-08-21T02:09:20;14.60;1.00
14210;DHT22;7188;56.070;12.698;2022-08-21T02:11:47;14.50;99.90
14210;DHT22;7188;56.070;12.698;2022-08-21T02:14:14;14.50;99.90
14210;DHT22;7188;56.070;12.698;2022-08-21T02:16:42;14.50;99.90
14210;DHT22;7188;56.070;12.698;2022-08-21T02:19:09;14.40;99.90
14210;DHT22;7188;56.070;12.698;2022-08-21T02:21:35;14.40;1.00
14210;DHT22;7188;56.070;12.698;2022-08-21T02:24:01;14.40;1.00
14210;DHT22;7188;56.070;12.698;2022-08-21T02:26:26;14.40;1.00
14210;DHT22;7188;56.070;12.698;2022-08-21T02:28:52;14.40;1.00
14210;DHT22;7188;56.070;12.698;2022-08-21T02:31:18;14.40;99.90
14210;DHT22;7188;56.070;12.698;2022-08-21T02:33:44;14.30;99.90
14210;DHT22;7188;56.070;12.698;2022-08-21T02:36:11;14.30;99.90
14210;DHT22;7188;56.070;12.698;2022-08-21T02:38:38;14.30;1.00
14210;DHT22;7188;56.070;12.698;2022-08-21T02:41:12;14.30;1.00
14210;DHT22;7188;56.070;12.698;2022-08-21T02:43:37;14.30;1.00
14210;DHT22;7188;56.070;12.698;2022-08-21T02:46:05;14.30;1.00
14210;DHT22;7188;56.070;12.698;2022-08-21T02:48:32;14.30;1.00
14210;DHT22;7188;56.070;12.698;2022-08-21T02:51:13;14.20;1.00
14210;DHT22;7188;56.070;12.698;2022-08-21T02:53:40;14.10;99.90
14210;DHT22;7188;56.070;12.698;2022-08-21T02:56:09;14.10;1.00
14210;DHT22;7188;56.070;12.698;2022-08-21T02:58:38;14.20;99.90
14210;DHT22;7188;56.070;12.698;2022-08-21T03:01:06;14.30;99.90
14210;DHT22;7188;56.070;12.698;2022-08-21T03:03:37;14.20;99.90
14210;DHT22;7188;56.070;12.698;2022-08-21T03:06:04;14.10;99.90
14210;DHT22;7188;56.070;12.698;2022-08-21T03:08:29;14.00;1.00
14210;DHT22;7188;56.070;12.698;2022-08-21T03:10:55;14.10;1.00
14210;DHT22;7188;56.070;12.698;2022-08-21T03:13:21;14.00;1.00
14210;DHT22;7188;56.070;12.698;2022-08-21T03:15:48;14.00;1.00
14210;DHT22;7188;56.070;12.698;2022-08-21T03:18:14;14.00;1.00
14210;DHT22;7188;56.070;12.698;2022-08-21T03:20:41;14.10;1.00
14210;DHT22;7188;56.070;12.698;2022-08-21T03:23:08;14.10;1.00
14210;DHT22;7188;56.070;12.698;2022-08-21T03:25:34;14.10;1.00
14210;DHT22;7188;56.070;12.698;2022-08-21T03:28:02;14.10;1.00
14210;DHT22;7188;56.070;12.698;2022-08-21T03:30:29;14.10;1.00
14210;DHT22;7188;56.070;12.698;2022-08-21T03:32:57;14.10;1.00
14210;DHT22;7188;56.070;12.698;2022-08-21T03:35:22;14.10;1.00
14210;DHT22;7188;56.070;12.698;2022-08-21T03:37:48;14.10;1.00
14210;DHT22;7188;56.070;12.698;2022-08-21T03:40:16;14.10;1.00
14210;DHT22;7188;56.070;12.698;2022-08-21T03:42:42;14.10;1.00
14210;DHT22;7188;56.070;12.698;2022-08-21T03:45:08;14.10;1.00
14210;DHT22;7188;56.070;12.698;2022-08-21T03:47:34;14.10;1.00
14210;DHT22;7188;56.070;12.698;2022-08-21T03:50:02;14.20;1.00
14210;DHT22;7188;56.070;12.698;2022-08-21T03:52:28;14.10;1.00
14210;DHT22;7188;56.070;12.698;2022-08-21T03:54:54;14.10;1.00
14210;DHT22;7188;56.070;12.698;2022-08-21T03:57:20;14.20;1.00
14210;DHT22;7188;56.070;12.698;2022-08-21T03:59:47;14.20;1.00
14210;DHT22;7188;56.070;12.698;2022-08-21T04:02:14;14.30;1.00
14210;DHT22;7188;56.070;12.698;2022-08-21T04:04:42;14.30;1.00
14210;DHT22;7188;56.070;12.698;2022-08-21T04:07:08;14.20;1.00
14210;DHT22;7188;56.070;12.698;2022-08-21T04:09:34;14.20;1.00
14210;DHT22;7188;56.070;12.698;2022-08-21T04:11:59;14.20;1.00
14210;DHT22;7188;56.070;12.698;2022-08-21T04:14:25;14.30;1.00
14210;DHT22;7188;56.070;12.698;2022-08-21T04:16:51;14.50;1.00
14210;DHT22;7188;56.070;12.698;2022-08-21T04:19:17;14.60;1.00
14210;DHT22;7188;56.070;12.698;2022-08-21T04:21:43;14.60;1.00
14210;DHT22;7188;56.070;12.698;2022-08-21T04:24:09;14.70;1.00
14210;DHT22;7188;56.070;12.698;2022-08-21T04:26:37;14.80;1.00
14210;DHT22;7188;56.070;12.698;2022-08-21T04:29:03;15.00;1.00
14210;DHT22;7188;56.070;12.698;2022-08-21T04:31:32;15.20;1.00
14210;DHT22;7188;56.070;12.698;2022-08-21T04:33:59;15.50;1.00
14210;DHT22;7188;56.070;12.698;2022-08-21T04:36:24;15.60;1.00
14210;DHT22;7188;56.070;12.698;2022-08-21T04:38:50;15.70;1.00
14210;DHT22;7188;56.070;12.698;2022-08-21T04:41:16;15.70;1.00
14210;DHT22;7188;56.070;12.698;2022-08-21T04:43:41;15.80;78.80
14210;DHT22;7188;56.070;12.698;2022-08-21T04:46:08;15.90;1.00
14210;DHT22;7188;56.070;12.698;2022-08-21T04:48:34;16.00;39.60
14210;DHT22;7188;56.070;12.698;2022-08-21T04:51:01;16.10;73.20
14210;DHT22;7188;56.070;12.698;2022-08-21T04:53:33;16.20;94.10
14210;DHT22;7188;56.070;12.698;2022-08-21T04:56:05;16.30;42.20
14210;DHT22;7188;56.070;12.698;2022-08-21T04:58:34;16.40;55.90
14210;DHT22;7188;56.070;12.698;2022-08-21T05:01:01;16.60;37.90
14210;DHT22;7188;56.070;12.698;2022-08-21T05:03:28;16.70;1.00
14210;DHT22;7188;56.070;12.698;2022-08-21T05:05:56;16.90;1.00
14210;DHT22;7188;56.070;12.698;2022-08-21T05:08:23;17.00;1.00
14210;DHT22;7188;56.070;12.698;2022-08-21T05:10:50;17.20;1.00
14210;DHT22;7188;56.070;12.698;2022-08-21T05:13:17;17.20;1.00
14210;DHT22;7188;56.070;12.698;2022-08-21T05:15:43;17.30;1.00
14210;DHT22;7188;56.070;12.698;2022-08-21T05:18:09;17.40;1.00
14210;DHT22;7188;56.070;12.698;2022-08-21T05:20:35;17.50;1.00
14210;DHT22;7188;56.070;12.698;2022-08-21T05:23:01;17.60;1.00
14210;DHT22;7188;56.070;12.698;2022-08-21T05:25:27;17.70;1.00
14210;DHT22;7188;56.070;12.698;2022-08-21T05:27:53;17.90;99.90
14210;DHT22;7188;56.070;12.698;2022-08-21T05:30:20;18.00;1.00
14210;DHT22;7188;56.070;12.698;2022-08-21T05:32:46;18.20;99.90
14210;DHT22;7188;56.070;12.698;2022-08-21T05:35:13;18.30;90.90
14210;DHT22;7188;56.070;12.698;2022-08-21T05:37:39;18.40;1.00
14210;DHT22;7188;56.070;12.698;2022-08-21T05:40:06;18.40;99.90
14210;DHT22;7188;56.070;12.698;2022-08-21T05:42:33;18.50;1.00
14210;DHT22;7188;56.070;12.698;2022-08-21T05:44:59;18.60;1.00
14210;DHT22;7188;56.070;12.698;2022-08-21T05:47:25;18.60;1.00
14210;DHT22;7188;56.070;12.698;2022-08-21T05:49:50;18.60;1.00
14210;DHT22;7188;56.070;12.698;2022-08-21T05:52:20;18.60;1.00
14210;DHT22;7188;56.070;12.698;2022-08-21T05:54:46;18.60;99.90
14210;DHT22;7188;56.070;12.698;2022-08-21T05:57:12;18.60;99.90
14210;DHT22;7188;56.070;12.698;2022-08-21T05:59:38;18.60;99.90
14210;DHT22;7188;56.070;12.698;2022-08-21T06:02:04;18.70;99.90
14210;DHT22;7188;56.070;12.698;2022-08-21T06:04:29;18.70;99.90
14210;DHT22;7188;56.070;12.698;2022-08-21T06:06:55;18.90;30.30
14210;DHT22;7188;56.070;12.698;2022-08-21T06:09:21;18.90;1.00
14210;DHT22;7188;56.070;12.698;2022-08-21T06:11:46;19.00;1.00
14210;DHT22;7188;56.070;12.698;2022-08-21T06:14:15;19.20;99.90
14210;DHT22;7188;56.070;12.698;2022-08-21T06:16:41;19.30;1.00
14210;DHT22;7188;56.070;12.698;2022-08-21T06:19:07;19.30;99.90
14210;DHT22;7188;56.070;12.698;2022-08-21T06:21:33;19.40;99.90
14210;DHT22;7188;56.070;12.698;2022-08-21T06:23:58;19.50;56.40
14210;DHT22;7188;56.070;12.698;2022-08-21T06:26:24;19.60;1.00
14210;DHT22;7188;56.070;12.698;2022-08-21T06:28:50;19.70;99.90
14210;DHT22;7188;56.070;12.698;2022-08-21T06:31:18;19.80;68.90
14210;DHT22;7188;56.070;12.698;2022-08-21T06:33:45;19.80;10.00
14210;DHT22;7188;56.070;12.698;2022-08-21T06:36:11;19.90;1.00
14210;DHT22;7188;56.070;12.698;2022-08-21T06:38:38;19.90;1.00
14210;DHT22;7188;56.070;12.698;2022-08-21T06:41:04;19.90;1.00
14210;DHT22;7188;56.070;12.698;2022-08-21T06:43:30;20.00;1.00
14210;DHT22;7188;56.070;12.698;2022-08-21T06:45:56;20.10;99.90
14210;DHT22;7188;56.070;12.698;2022-08-21T06:48:22;20.10;99.90
14210;DHT22;7188;56.070;12.698;2022-08-21T06:50:48;20.20;40.80
14210;DHT22;7188;56.070;12.698;2022-08-21T06:53:17;20.20;99.90
14210;DHT22;7188;56.070;12.698;2022-08-21T06:55:43;20.30;99.90
14210;DHT22;7188;56.070;12.698;2022-08-21T06:58:10;20.40;1.00
14210;DHT22;7188;56.070;12.698;2022-08-21T07:00:39;20.40;99.90
14210;DHT22;7188;56.070;12.698;2022-08-21T07:03:06;20.40;53.80
14210;DHT22;7188;56.070;12.698;2022-08-21T07:05:31;20.30;1.00
14210;DHT22;7188;56.070;12.698;2022-08-21T07:07:58;20.40;1.00
14210;DHT22;7188;56.070;12.698;2022-08-21T07:10:27;20.40;1.00
14210;DHT22;7188;56.070;12.698;2022-08-21T07:12:53;20.40;1.00
14210;DHT22;7188;56.070;12.698;2022-08-21T07:15:20;20.50;1.00
14210;DHT22;7188;56.070;12.698;2022-08-21T07:17:46;20.50;1.00
14210;DHT22;7188;56.070;12.698;2022-08-21T07:20:11;20.50;1.00
14210;DHT22;7188;56.070;12.698;2022-08-21T07:22:38;20.50;99.90
14210;DHT22;7188;56.070;12.698;2022-08-21T07:25:05;20.50;1.00
14210;DHT22;7188;56.070;12.698;2022-08-21T07:27:30;20.60;99.90
14210;DHT22;7188;56.070;12.698;2022-08-21T07:29:57;20.60;99.90
14210;DHT22;7188;56.070;12.698;2022-08-21T07:32:23;20.70;99.90
14210;DHT22;7188;56.070;12.698;2022-08-21T07:34:48;20.80;99.90
14210;DHT22;7188;56.070;12.698;2022-08-21T07:37:14;20.90;99.90
14210;DHT22;7188;56.070;12.698;2022-08-21T07:39:40;20.90;99.90
14210;DHT22;7188;56.070;12.698;2022-08-21T07:42:06;20.90;99.90
14210;DHT22;7188;56.070;12.698;2022-08-21T07:44:32;21.00;99.90
14210;DHT22;7188;56.070;12.698;2022-08-21T07:47:00;21.10;99.90
14210;DHT22;7188;56.070;12.698;2022-08-21T07:49:26;21.20;99.90
14210;DHT22;7188;56.070;12.698;2022-08-21T07:51:52;21.30;99.90
14210;DHT22;7188;56.070;12.698;2022-08-21T07:54:18;21.30;99.90
14210;DHT22;7188;56.070;12.698;2022-08-21T07:56:43;21.30;99.90
14210;DHT22;7188;56.070;12.698;2022-08-21T07:59:09;21.30;99.90
14210;DHT22;7188;56.070;12.698;2022-08-21T08:01:35;21.40;99.90
14210;DHT22;7188;56.070;12.698;2022-08-21T08:04:00;21.50;99.90
14210;DHT22;7188;56.070;12.698;2022-08-21T08:06:26;21.40;99.90
14210;DHT22;7188;56.070;12.698;2022-08-21T08:08:52;21.50;99.90
14210;DHT22;7188;56.070;12.698;2022-08-21T08:11:18;21.70;99.90
14210;DHT22;7188;56.070;12.698;2022-08-21T08:13:49;21.80;1.00
14210;DHT22;7188;56.070;12.698;2022-08-21T08:16:16;21.80;1.00
14210;DHT22;7188;56.070;12.698;2022-08-21T08:18:41;21.80;1.00
14210;DHT22;7188;56.070;12.698;2022-08-21T08:21:08;21.90;1.00
14210;DHT22;7188;56.070;12.698;2022-08-21T08:23:34;22.00;1.00
14210;DHT22;7188;56.070;12.698;2022-08-21T08:26:00;22.00;1.00
14210;DHT22;7188;56.070;12.698;2022-08-21T08:28:29;22.00;1.00
14210;DHT22;7188;56.070;12.698;2022-08-21T08:30:55;22.10;1.00
14210;DHT22;7188;56.070;12.698;2022-08-21T08:33:21;22.20;99.90
14210;DHT22;7188;56.070;12.698;2022-08-21T08:35:49;22.30;1.00
14210;DHT22;7188;56.070;12.698;2022-08-21T08:38:17;22.20;99.90
14210;DHT22;7188;56.070;12.698;2022-08-21T08:41:13;22.30;99.90
14210;DHT22;7188;56.070;12.698;2022-08-21T08:43:42;22.40;99.90
14210;DHT22;7188;56.070;12.698;2022-08-21T08:46:15;22.60;1.00
14210;DHT22;7188;56.070;12.698;2022-08-21T08:48:52;22.60;1.00
14210;DHT22;7188;56.070;12.698;2022-08-21T08:51:37;22.70;99.90
14210;DHT22;7188;56.070;12.698;2022-08-21T08:54:09;22.80;99.90
14210;DHT22;7188;56.070;12.698;2022-08-21T08:56:35;22.70;99.90
14210;DHT22;7188;56.070;12.698;2022-08-21T08:59:22;22.80;99.90
14210;DHT22;7188;56.070;12.698;2022-08-21T09:01:51;22.90;99.90
14210;DHT22;7188;56.070;12.698;2022-08-21T09:04:22;23.00;99.90
14210;DHT22;7188;56.070;12.698;2022-08-21T09:16:35;22.80;99.90
14210;DHT22;7188;56.070;12.698;2022-08-21T09:27:11;22.90;99.90
14210;DHT22;7188;56.070;12.698;2022-08-21T09:29:40;23.00;99.90
14210;DHT22;7188;56.070;12.698;2022-08-21T09:32:18;23.10;99.90
14210;DHT22;7188;56.070;12.698;2022-08-21T09:37:20;23.20;99.90
14210;DHT22;7188;56.070;12.698;2022-08-21T09:39:46;23.20;99.90
14210;DHT22;7188;56.070;12.698;2022-08-21T09:42:29;23.30;99.90
14210;DHT22;7188;56.070;12.698;2022-08-21T09:47:32;23.40;99.90
14210;DHT22;7188;56.070;12.698;2022-08-21T09:50:08;23.50;99.90
14210;DHT22;7188;56.070;12.698;2022-08-21T09:52:34;23.70;99.90
14210;DHT22;7188;56.070;12.698;2022-08-21T09:55:00;23.80;78.20
14210;DHT22;7188;56.070;12.698;2022-08-21T09:57:45;23.70;62.90
14210;DHT22;7188;56.070;12.698;2022-08-21T10:00:30;23.60;76.20
14210;DHT22;7188;56.070;12.698;2022-08-21T10:03:28;23.70;68.30
14210;DHT22;7188;56.070;12.698;2022-08-21T10:05:59;23.60;35.90
14210;DHT22;7188;56.070;12.698;2022-08-21T10:08:27;23.70;8.90
14210;DHT22;7188;56.070;12.698;2022-08-21T10:11:09;23.70;4.40
14210;DHT22;7188;56.070;12.698;2022-08-21T10:27:19;23.90;99.90
14210;DHT22;7188;56.070;12.698;2022-08-21T10:30:03;23.90;99.90
14210;DHT22;7188;56.070;12.698;2022-08-21T10:35:08;24.00;99.90
14210;DHT22;7188;56.070;12.698;2022-08-21T10:40:26;24.10;99.90
14210;DHT22;7188;56.070;12.698;2022-08-21T10:43:12;24.00;99.90
14210;DHT22;7188;56.070;12.698;2022-08-21T10:51:38;24.10;99.90
14210;DHT22;7188;56.070;12.698;2022-08-21T10:54:13;24.20;99.90
14210;DHT22;7188;56.070;12.698;2022-08-21T10:56:43;24.30;99.90
14210;DHT22;7188;56.070;12.698;2022-08-21T10:59:47;24.30;99.90
14210;DHT22;7188;56.070;12.698;2022-08-21T11:07:32;24.40;99.90
14210;DHT22;7188;56.070;12.698;2022-08-21T11:10:09;24.40;99.90
14210;DHT22;7188;56.070;12.698;2022-08-21T11:12:40;24.30;99.90
14210;DHT22;7188;56.070;12.698;2022-08-21T11:20:51;24.40;99.90
14210;DHT22;7188;56.070;12.698;2022-08-21T11:23:33;24.30;99.90
14210;DHT22;7188;56.070;12.698;2022-08-21T11:26:07;24.50;99.90
14210;DHT22;7188;56.070;12.698;2022-08-21T11:28:41;24.60;99.90
14210;DHT22;7188;56.070;12.698;2022-08-21T11:38:53;24.50;99.90
14210;DHT22;7188;56.070;12.698;2022-08-21T11:41:31;24.40;99.90
14210;DHT22;7188;56.070;12.698;2022-08-21T11:44:39;24.50;99.90
14210;DHT22;7188;56.070;12.698;2022-08-21T11:47:15;24.60;99.90
14210;DHT22;7188;56.070;12.698;2022-08-21T11:52:38;24.70;99.90
14210;DHT22;7188;56.070;12.698;2022-08-21T11:55:19;24.60;99.90
14210;DHT22;7188;56.070;12.698;2022-08-21T11:57:59;24.80;99.90
14210;DHT22;7188;56.070;12.698;2022-08-21T12:00:31;24.90;99.90
14210;DHT22;7188;56.070;12.698;2022-08-21T12:03:28;25.10;99.90
14210;DHT22;7188;56.070;12.698;2022-08-21T12:06:01;25.10;99.90
14210;DHT22;7188;56.070;12.698;2022-08-21T12:08:33;25.20;99.20
14210;DHT22;7188;56.070;12.698;2022-08-21T12:19:05;25.20;92.20
14210;DHT22;7188;56.070;12.698;2022-08-21T12:21:31;25.30;76.00
14210;DHT22;7188;56.070;12.698;2022-08-21T12:26:54;25.00;69.00
14210;DHT22;7188;56.070;12.698;2022-08-21T12:29:35;24.90;70.30
14210;DHT22;7188;56.070;12.698;2022-08-21T12:34:53;25.10;60.90
14210;DHT22;7188;56.070;12.698;2022-08-21T12:39:58;25.20;38.80
14210;DHT22;7188;56.070;12.698;2022-08-21T12:42:37;25.20;44.40
14210;DHT22;7188;56.070;12.698;2022-08-21T12:45:20;25.20;27.40
14210;DHT22;7188;56.070;12.698;2022-08-21T12:47:54;25.10;28.50
14210;DHT22;7188;56.070;12.698;2022-08-21T12:50:37;25.20;34.30
14210;DHT22;7188;56.070;12.698;2022-08-21T12:53:09;25.40;19.40
14210;DHT22;7188;56.070;12.698;2022-08-21T12:55:40;25.40;21.50
14210;DHT22;7188;56.070;12.698;2022-08-21T12:58:20;25.30;29.20
14210;DHT22;7188;56.070;12.698;2022-08-21T13:00:55;25.40;23.70
14210;DHT22;7188;56.070;12.698;2022-08-21T13:03:22;25.40;20.90
14210;DHT22;7188;56.070;12.698;2022-08-21T13:05:49;25.40;19.90
14210;DHT22;7188;56.070;12.698;2022-08-21T13:08:19;25.50;16.40
14210;DHT22;7188;56.070;12.698;2022-08-21T13:10:46;25.60;16.10
14210;DHT22;7188;56.070;12.698;2022-08-21T13:13:20;25.70;6.10
14210;DHT22;7188;56.070;12.698;2022-08-21T13:15:47;25.80;2.10
14210;DHT22;7188;56.070;12.698;2022-08-21T13:18:22;25.90;1.00
14210;DHT22;7188;56.070;12.698;2022-08-21T13:20:49;26.00;1.00
14210;DHT22;7188;56.070;12.698;2022-08-21T13:23:26;26.00;1.00
14210;DHT22;7188;56.070;12.698;2022-08-21T13:25:53;26.10;1.00
14210;DHT22;7188;56.070;12.698;2022-08-21T13:28:41;26.00;1.00
14210;DHT22;7188;56.070;12.698;2022-08-21T13:31:08;25.80;1.00
14210;DHT22;7188;56.070;12.698;2022-08-21T13:33:40;25.70;1.00
14210;DHT22;7188;56.070;12.698;2022-08-21T13:36:40;25.70;1.00
14210;DHT22;7188;56.070;12.698;2022-08-21T13:39:11;25.70;1.00
14210;DHT22;7188;56.070;12.698;2022-08-21T13:41:41;26.00;1.00
14210;DHT22;7188;56.070;12.698;2022-08-21T13:44:20;26.00;1.00
14210;DHT22;7188;56.070;12.698;2022-08-21T13:46:48;26.10;1.00
14210;DHT22;7188;56.070;12.698;2022-08-21T13:49:17;26.10;1.00
14210;DHT22;7188;56.070;12.698;2022-08-21T13:51:44;26.10;13.60
14210;DHT22;7188;56.070;12.698;2022-08-21T13:54:20;26.10;9.80
14210;DHT22;7188;56.070;12.698;2022-08-21T13:56:46;25.60;18.80
14210;DHT22;7188;56.070;12.698;2022-08-21T13:59:23;25.20;27.90
14210;DHT22;7188;56.070;12.698;2022-08-21T14:01:56;25.10;33.40
14210;DHT22;7188;56.070;12.698;2022-08-21T14:04:31;25.10;53.20
14210;DHT22;7188;56.070;12.698;2022-08-21T14:06:57;25.20;63.60
14210;DHT22;7188;56.070;12.698;2022-08-21T14:09:39;25.30;53.20
14210;DHT22;7188;56.070;12.698;2022-08-21T14:12:26;25.40;48.40
14210;DHT22;7188;56.070;12.698;2022-08-21T14:14:53;25.50;38.30
14210;DHT22;7188;56.070;12.698;2022-08-21T14:17:32;25.60;41.30
14210;DHT22;7188;56.070;12.698;2022-08-21T14:19:58;25.60;33.10
14210;DHT22;7188;56.070;12.698;2022-08-21T14:30:40;24.60;94.70
14210;DHT22;7188;56.070;12.698;2022-08-21T14:33:29;24.30;99.90
14210;DHT22;7188;56.070;12.698;2022-08-21T14:35:55;24.20;99.90
14210;DHT22;7188;56.070;12.698;2022-08-21T14:38:23;24.10;99.90
14210;DHT22;7188;56.070;12.698;2022-08-21T14:40:53;24.10;99.90
14210;DHT22;7188;56.070;12.698;2022-08-21T14:43:20;24.20;99.90
14210;DHT22;7188;56.070;12.698;2022-08-21T14:45:46;24.30;99.90
14210;DHT22;7188;56.070;12.698;2022-08-21T14:48:12;24.30;99.90
14210;DHT22;7188;56.070;12.698;2022-08-21T14:50:39;24.30;99.90
14210;DHT22;7188;56.070;12.698;2022-08-21T14:53:05;24.30;99.90
14210;DHT22;7188;56.070;12.698;2022-08-21T14:55:32;24.30;99.90
14210;DHT22;7188;56.070;12.698;2022-08-21T14:58:21;24.40;99.90
14210;DHT22;7188;56.070;12.698;2022-08-21T15:00:49;24.60;99.90
14210;DHT22;7188;56.070;12.698;2022-08-21T15:03:15;24.60;99.90
14210;DHT22;7188;56.070;12.698;2022-08-21T15:05:40;24.60;99.90
14210;DHT22;7188;56.070;12.698;2022-08-21T15:08:06;24.70;99.90
14210;DHT22;7188;56.070;12.698;2022-08-21T15:10:33;24.80;99.90
14210;DHT22;7188;56.070;12.698;2022-08-21T15:12:59;24.80;99.90
14210;DHT22;7188;56.070;12.698;2022-08-21T15:15:25;24.70;99.90
14210;DHT22;7188;56.070;12.698;2022-08-21T15:17:51;24.50;99.90
14210;DHT22;7188;56.070;12.698;2022-08-21T15:20:17;24.40;99.90
14210;DHT22;7188;56.070;12.698;2022-08-21T15:22:42;24.30;99.90
14210;DHT22;7188;56.070;12.698;2022-08-21T15:25:08;24.30;99.90
14210;DHT22;7188;56.070;12.698;2022-08-21T15:27:34;24.20;99.90
14210;DHT22;7188;56.070;12.698;2022-08-21T15:30:02;24.30;99.90
14210;DHT22;7188;56.070;12.698;2022-08-21T15:32:28;24.40;99.90
14210;DHT22;7188;56.070;12.698;2022-08-21T15:34:56;24.50;99.90
14210;DHT22;7188;56.070;12.698;2022-08-21T15:37:23;24.60;99.90
14210;DHT22;7188;56.070;12.698;2022-08-21T15:39:50;24.60;99.90
14210;DHT22;7188;56.070;12.698;2022-08-21T15:42:16;24.60;99.90
14210;DHT22;7188;56.070;12.698;2022-08-21T15:44:42;24.60;99.90
14210;DHT22;7188;56.070;12.698;2022-08-21T15:47:15;24.60;99.90
14210;DHT22;7188;56.070;12.698;2022-08-21T15:49:42;24.60;99.90
14210;DHT22;7188;56.070;12.698;2022-08-21T15:52:12;24.70;99.90
14210;DHT22;7188;56.070;12.698;2022-08-21T15:54:37;24.70;99.90
14210;DHT22;7188;56.070;12.698;2022-08-21T15:57:03;24.70;99.90
14210;DHT22;7188;56.070;12.698;2022-08-21T15:59:37;24.70;99.90
14210;DHT22;7188;56.070;12.698;2022-08-21T16:02:06;24.70;99.90
14210;DHT22;7188;56.070;12.698;2022-08-21T16:04:32;24.70;99.90
14210;DHT22;7188;56.070;12.698;2022-08-21T16:06:58;24.70;99.90
14210;DHT22;7188;56.070;12.698;2022-08-21T16:09:23;24.70;99.90
14210;DHT22;7188;56.070;12.698;2022-08-21T16:11:50;24.70;99.90
14210;DHT22;7188;56.070;12.698;2022-08-21T16:14:16;24.70;99.90
14210;DHT22;7188;56.070;12.698;2022-08-21T16:16:42;24.70;99.90
14210;DHT22;7188;56.070;12.698;2022-08-21T16:19:10;24.60;99.90
14210;DHT22;7188;56.070;12.698;2022-08-21T16:21:36;24.30;99.90
14210;DHT22;7188;56.070;12.698;2022-08-21T16:24:02;24.20;99.90
14210;DHT22;7188;56.070;12.698;2022-08-21T16:26:28;24.00;99.90
14210;DHT22;7188;56.070;12.698;2022-08-21T16:28:56;23.90;99.90
14210;DHT22;7188;56.070;12.698;2022-08-21T16:31:23;23.90;99.90
14210;DHT22;7188;56.070;12.698;2022-08-21T16:33:52;23.80;99.90
14210;DHT22;7188;56.070;12.698;2022-08-21T16:36:19;23.70;99.90
14210;DHT22;7188;56.070;12.698;2022-08-21T16:38:45;23.70;99.90
14210;DHT22;7188;56.070;12.698;2022-08-21T16:41:16;23.70;99.90
14210;DHT22;7188;56.070;12.698;2022-08-21T16:43:44;23.70;99.90
14210;DHT22;7188;56.070;12.698;2022-08-21T16:46:12;23.70;99.90
14210;DHT22;7188;56.070;12.698;2022-08-21T16:48:39;23.70;99.90
14210;DHT22;7188;56.070;12.698;2022-08-21T16:51:06;23.70;99.90
14210;DHT22;7188;56.070;12.698;2022-08-21T16:53:31;23.60;99.90
14210;DHT22;7188;56.070;12.698;2022-08-21T16:55:57;23.50;99.90
14210;DHT22;7188;56.070;12.698;2022-08-21T16:58:29;23.50;99.90
14210;DHT22;7188;56.070;12.698;2022-08-21T17:00:56;23.40;99.90
14210;DHT22;7188;56.070;12.698;2022-08-21T17:03:29;23.40;99.90
14210;DHT22;7188;56.070;12.698;2022-08-21T17:05:55;23.30;99.90
14210;DHT22;7188;56.070;12.698;2022-08-21T17:08:20;23.30;99.90
14210;DHT22;7188;56.070;12.698;2022-08-21T17:10:48;23.30;99.90
14210;DHT22;7188;56.070;12.698;2022-08-21T17:13:14;23.20;99.90
14210;DHT22;7188;56.070;12.698;2022-08-21T17:15:40;23.20;99.90
14210;DHT22;7188;56.070;12.698;2022-08-21T17:18:13;23.10;99.90
14210;DHT22;7188;56.070;12.698;2022-08-21T17:20:40;23.10;99.90
14210;DHT22;7188;56.070;12.698;2022-08-21T17:23:06;23.00;99.90